Time;durP1;ratioP1;P1;durP2;ratioP2;P2;SDS_P1;SDS_P2;PMS_P1;PMS_P2;Temp;Humidity;BMP_temperature;BMP_pressure;BME280_temperature;BME280_humidity;BME280_pressure;Samples;Min_cycle;Max_cycle;Signal;HPM_P1;HPM_P2
2021/03/31 00:00:45;;;;;;;18.23;10.27;;;;;;;8.43;38.49;100443.56;355851;112;1961937;-72
2021/03/31 00:01:51;;;;;;;16.63;10.13;;;;;;;8.44;38.54;100460.55;349792;114;1962016;-73
2021/03/31 00:02:59;;;;;;;18.65;10.03;;;;;;;8.43;38.77;100450.80;317791;113;2649030;-72
2021/03/31 00:04:06;;;;;;;19.69;11.89;;;;;;;8.43;38.82;100450.80;349228;114;1962070;-73
2021/03/31 00:05:12;;;;;;;19.61;10.70;;;;;;;8.42;38.73;100447.27;319112;112;2622072;-72
2021/03/31 00:06:20;;;;;;;17.91;10.26;;;;;;;8.41;38.74;100442.88;349095;114;1963947;-72
2021/03/31 00:07:26;;;;;;;21.03;10.19;;;;;;;8.40;38.76;100443.08;318848;114;2631899;-72
2021/03/31 00:08:31;;;;;;;18.86;10.11;;;;;;;8.32;38.75;100431.27;340111;112;1962984;-73
2021/03/31 00:09:38;;;;;;;19.16;11.67;;;;;;;8.41;38.80;100444.73;348868;114;1962026;-72
2021/03/31 00:10:49;;;;;;;19.71;11.17;;;;;;;8.38;38.84;100435.95;328438;112;2475959;-73
2021/03/31 00:11:54;;;;;;;20.58;12.99;;;;;;;8.39;38.85;100436.86;357041;111;1962050;-72
2021/03/31 00:13:00;;;;;;;19.57;11.16;;;;;;;8.38;38.85;100440.51;312646;111;2822018;-72
2021/03/31 00:14:05;;;;;;;25.48;13.41;;;;;;;8.35;38.91;100428.23;337170;111;1961991;-73
2021/03/31 00:15:12;;;;;;;18.60;12.11;;;;;;;8.36;38.92;100429.93;357982;112;1962338;-73
2021/03/31 00:16:19;;;;;;;19.96;11.67;;;;;;;8.37;38.86;100430.77;358130;113;1962003;-72
2021/03/31 00:17:24;;;;;;;20.12;12.22;;;;;;;8.35;38.95;100427.40;330688;111;1962028;-73
2021/03/31 00:18:30;;;;;;;23.63;11.90;;;;;;;8.34;38.97;100428.42;355911;111;1964896;-71
2021/03/31 00:19:37;;;;;;;21.32;11.96;;;;;;;8.31;39.08;100432.30;359555;111;1961982;-72
2021/03/31 00:20:45;;;;;;;17.69;10.12;;;;;;;8.29;39.07;100426.23;358895;111;1962126;-72
2021/03/31 00:21:50;;;;;;;20.73;11.57;;;;;;;8.29;39.14;100428.93;351768;113;1963980;-73
2021/03/31 00:22:55;;;;;;;17.32;9.67;;;;;;;8.28;39.16;100431.78;346335;115;1962062;-73
2021/03/31 00:24:01;;;;;;;17.78;10.73;;;;;;;8.29;39.22;100430.79;352365;113;1962941;-72
2021/03/31 00:25:08;;;;;;;21.56;11.93;;;;;;;8.30;39.29;100430.60;347037;115;1963988;-72
2021/03/31 00:26:15;;;;;;;18.69;10.69;;;;;;;8.28;39.34;100429.09;345201;117;1962061;-72
2021/03/31 00:27:21;;;;;;;21.82;10.84;;;;;;;8.26;39.40;100434.66;352075;114;1961978;-72
2021/03/31 00:28:27;;;;;;;18.74;9.95;;;;;;;8.25;39.48;100430.27;315663;115;2548957;-73
2021/03/31 00:29:34;;;;;;;18.37;10.79;;;;;;;8.26;39.53;100426.59;345984;115;1961908;-72
2021/03/31 00:30:42;;;;;;;17.49;9.68;;;;;;;8.25;39.69;100422.20;322342;115;1963051;-72
2021/03/31 00:31:50;;;;;;;19.88;11.23;;;;;;;8.27;39.68;100428.26;344712;115;1963016;-72
2021/03/31 00:32:56;;;;;;;17.89;10.04;;;;;;;8.26;40.09;100428.45;306955;113;2819970;-72
2021/03/31 00:34:01;;;;;;;19.10;10.22;;;;;;;8.25;40.02;100419.51;343517;113;1962008;-73
2021/03/31 00:35:08;;;;;;;16.80;9.92;;;;;;;8.24;40.02;100417.84;345927;117;1961966;-72
2021/03/31 00:36:15;;;;;;;18.55;10.84;;;;;;;8.23;40.15;100418.00;312827;114;2646982;-73
2021/03/31 00:37:20;;;;;;;16.65;10.72;;;;;;;8.22;40.40;100425.23;328625;114;1961972;-72
2021/03/31 00:38:26;;;;;;;15.98;9.96;;;;;;;8.19;40.55;100420.20;348020;114;1962037;-73
2021/03/31 00:39:31;;;;;;;19.55;9.83;;;;;;;8.15;40.67;100417.03;353815;112;1961972;-73
2021/03/31 00:40:44;;;;;;;19.09;10.69;;;;;;;8.13;40.90;100410.97;351517;113;1963069;-73
2021/03/31 00:41:49;;;;;;;21.18;12.10;;;;;;;7.97;41.15;100392.18;334418;113;1962019;-72
2021/03/31 00:42:55;;;;;;;18.57;10.57;;;;;;;8.12;41.29;100414.69;344275;115;1961891;-72
2021/03/31 00:44:00;;;;;;;17.18;10.64;;;;;;;8.10;41.25;100416.70;349982;113;1962004;-71
2021/03/31 00:45:08;;;;;;;16.37;9.93;;;;;;;8.07;41.27;100406.28;345015;115;1962024;-71
2021/03/31 00:46:13;;;;;;;15.69;9.49;;;;;;;8.07;41.52;100410.80;322618;112;1961965;-72
2021/03/31 00:47:19;;;;;;;17.29;10.36;;;;;;;8.05;41.53;100416.37;342900;113;1962835;-72
2021/03/31 00:48:24;;;;;;;17.13;10.27;;;;;;;8.04;41.72;100411.98;345886;115;1961999;-73
2021/03/31 00:49:31;;;;;;;17.12;9.05;;;;;;;8.02;42.05;100415.86;344750;115;1961994;-72
2021/03/31 00:50:37;;;;;;;15.16;10.28;;;;;;;8.02;42.14;100410.48;318046;112;2651956;-72
2021/03/31 00:51:43;;;;;;;17.60;9.79;;;;;;;8.01;42.24;100417.71;342855;116;1960774;-72
2021/03/31 00:52:51;;;;;;;17.59;11.05;;;;;;;7.98;42.42;100411.84;353199;113;1964897;-72
2021/03/31 00:53:57;;;;;;;16.43;10.13;;;;;;;7.95;42.38;100404.13;333164;112;1964995;-73
2021/03/31 00:55:03;;;;;;;19.81;10.91;;;;;;;7.95;42.66;100404.95;358529;111;1962019;-72
2021/03/31 00:56:11;;;;;;;17.91;10.14;;;;;;;7.95;42.72;100409.50;357170;111;1965011;-72
2021/03/31 00:57:17;;;;;;;19.61;10.12;;;;;;;7.93;42.98;100407.80;358925;111;1962006;-72
2021/03/31 00:58:23;;;;;;;17.14;10.53;;;;;;;7.93;42.97;100401.59;358299;111;1961960;-72
2021/03/31 00:59:29;;;;;;;16.70;10.74;;;;;;;7.90;42.96;100407.31;358486;111;1963017;-72
2021/03/31 01:00:35;;;;;;;16.31;10.05;;;;;;;7.88;43.04;100403.95;306114;111;2180714;-72
2021/03/31 01:01:44;;;;;;;17.38;11.28;;;;;;;7.86;43.42;100404.13;359317;112;1961891;-72
2021/03/31 01:02:49;;;;;;;17.82;11.61;;;;;;;7.86;43.27;100400.61;309700;113;2870986;-72
2021/03/31 01:03:55;;;;;;;17.37;10.01;;;;;;;7.83;43.55;100399.10;339505;111;1962047;-72
2021/03/31 01:05:00;;;;;;;16.82;9.93;;;;;;;7.81;43.52;100406.49;357698;112;1962036;-74
2021/03/31 01:06:06;;;;;;;18.88;11.46;;;;;;;7.79;43.74;100405.81;358472;113;1961940;-72
2021/03/31 01:07:11;;;;;;;18.74;11.04;;;;;;;7.79;43.72;100399.60;353385;112;1965158;-73
2021/03/31 01:08:17;;;;;;;18.80;11.17;;;;;;;7.78;43.92;100406.84;354055;112;1961930;-71
2021/03/31 01:09:23;;;;;;;17.59;10.49;;;;;;;7.78;44.05;100397.91;311163;111;2789954;-72
2021/03/31 01:10:33;;;;;;;19.99;11.68;;;;;;;7.78;44.05;100400.59;354796;112;1962980;-72
2021/03/31 01:11:47;;;;;;;19.15;11.36;;;;;;;7.79;44.26;100399.60;330965;112;1962997;-72
2021/03/31 01:12:57;;;;;;;17.84;11.21;;;;;;;7.79;44.39;100397.75;308245;118;1963146;-72
2021/03/31 01:14:18;;;;;;;17.41;11.74;;;;;;;7.78;44.18;100396.08;330716;116;2251000;-72
2021/03/31 01:15:30;;;;;;;20.26;10.82;;;;;;;7.77;44.22;100394.38;354568;112;1963961;-72
2021/03/31 01:16:50;;;;;;;18.64;10.50;;;;;;;7.77;44.45;100398.92;335217;112;1967026;-72
2021/03/31 01:17:59;;;;;;;19.09;10.43;;;;;;;7.75;44.51;100399.08;353131;113;1961066;-73
2021/03/31 01:19:30;;;;;;;20.99;11.08;;;;;;;7.73;44.66;100384.98;345500;115;1962047;-72
2021/03/31 01:20:44;;;;;;;18.76;11.31;;;;;;;7.74;45.13;100388.52;319136;114;2221951;-72
2021/03/31 01:22:05;;;;;;;19.25;10.95;;;;;;;7.75;44.91;100382.95;351780;113;1961951;-72
2021/03/31 01:23:43;;;;;;;20.30;10.35;;;;;;;7.76;44.85;100384.64;300021;113;2181983;-72
2021/03/31 01:25:12;;;;;;;23.03;13.64;;;;;;;7.77;44.90;100382.78;345767;115;1962952;-72
2021/03/31 01:26:44;;;;;;;19.61;11.08;;;;;;;7.74;45.10;100373.20;311947;113;2052475;-73
2021/03/31 01:28:13;;;;;;;18.59;10.82;;;;;;;7.71;45.49;100374.39;351723;113;1963083;-72
2021/03/31 01:29:29;;;;;;;23.37;13.71;;;;;;;7.69;45.76;100372.87;312109;115;1961981;-72
2021/03/31 01:30:47;;;;;;;29.96;16.01;;;;;;;7.69;45.84;100371.02;351551;113;1961965;-72
2021/03/31 01:32:15;;;;;;;32.79;18.58;;;;;;;7.69;45.84;100372.87;322609;114;2542042;-72
2021/03/31 01:33:30;;;;;;;32.03;17.41;;;;;;;7.70;45.75;100371.89;350256;114;1962065;-73
2021/03/31 01:34:54;;;;;;;38.72;21.82;;;;;;;7.68;45.75;100366.66;352291;112;1961926;-72
2021/03/31 01:36:00;;;;;;;34.01;19.94;;;;;;;7.68;45.74;100365.83;353836;114;1961949;-72
2021/03/31 01:37:12;;;;;;;41.41;23.52;;;;;;;7.67;45.75;100370.38;348385;114;1962977;-72
2021/03/31 01:38:21;;;;;;;41.89;22.72;;;;;;;7.66;45.97;100363.30;351485;112;1961991;-73
2021/03/31 01:39:28;;;;;;;32.59;19.96;;;;;;;7.65;45.93;100361.63;308980;115;2021061;-73
2021/03/31 01:40:38;;;;;;;34.23;19.96;;;;;;;7.49;46.09;100335.60;350870;113;1963915;-73
2021/03/31 01:41:45;;;;;;;33.26;20.66;;;;;;;7.62;46.26;100364.66;349265;113;1962929;-72
2021/03/31 01:43:06;;;;;;;30.62;19.20;;;;;;;7.63;46.71;100360.95;312190;113;2697015;-72
2021/03/31 01:44:14;;;;;;;32.36;17.06;;;;;;;7.63;46.67;100358.27;341178;117;1961967;-72
2021/03/31 01:45:23;;;;;;;27.41;15.44;;;;;;;7.61;46.60;100360.28;330481;117;2245945;-72
2021/03/31 01:46:32;;;;;;;25.86;14.57;;;;;;;7.59;46.81;100358.77;325973;117;1963975;-72
2021/03/31 01:47:42;;;;;;;27.33;16.22;;;;;;;7.58;46.84;100357.10;351682;113;1965031;-72
2021/03/31 01:48:52;;;;;;;26.87;14.92;;;;;;;7.58;46.84;100357.10;352020;113;1961954;-72
2021/03/31 01:50:02;;;;;;;24.93;14.10;;;;;;;7.57;47.16;100363.47;351236;115;1963983;-72
2021/03/31 01:51:12;;;;;;;23.27;15.29;;;;;;;7.57;46.86;100360.78;353868;112;1962013;-73
2021/03/31 01:52:18;;;;;;;23.42;14.87;;;;;;;7.56;47.02;100361.80;345280;115;1962043;-72
2021/03/31 01:53:25;;;;;;;23.48;14.58;;;;;;;7.57;47.32;100356.27;330331;116;1961990;-72
2021/03/31 01:54:33;;;;;;;35.55;14.60;;;;;;;7.59;47.05;100359.60;355932;111;1964053;-72
2021/03/31 01:55:43;;;;;;;23.76;12.72;;;;;;;7.60;47.06;100363.98;357779;111;1962972;-73
2021/03/31 01:56:49;;;;;;;21.57;13.92;;;;;;;7.61;46.95;100360.28;355626;113;1964009;-72
2021/03/31 01:57:56;;;;;;;23.40;13.63;;;;;;;7.59;47.12;100354.22;356179;112;1962056;-73
2021/03/31 01:59:03;;;;;;;20.08;13.14;;;;;;;7.59;47.25;100348.84;349373;113;1961972;-71
2021/03/31 02:00:13;;;;;;;20.33;12.67;;;;;;;7.63;46.99;100352.05;352334;113;1962033;-71
2021/03/31 02:01:21;;;;;;;23.23;13.40;;;;;;;7.62;47.08;100353.91;356801;112;1960937;-72
2021/03/31 02:02:28;;;;;;;23.37;12.45;;;;;;;7.62;47.14;100353.05;358397;111;1964981;-73
2021/03/31 02:03:37;;;;;;;19.58;12.51;;;;;;;7.60;47.27;100342.48;353522;112;1964015;-73
2021/03/31 02:04:44;;;;;;;19.68;12.44;;;;;;;7.63;47.18;100349.36;348201;114;1962077;-73
2021/03/31 02:05:50;;;;;;;20.76;12.83;;;;;;;7.64;47.12;100351.03;354373;112;1961933;-72
2021/03/31 02:06:56;;;;;;;21.02;12.62;;;;;;;7.63;47.27;100350.20;327156;114;1962050;-73
2021/03/31 02:08:04;;;;;;;21.65;14.13;;;;;;;7.65;47.18;100350.88;351459;114;1962855;-73
2021/03/31 02:09:12;;;;;;;21.90;13.70;;;;;;;7.65;47.41;100344.66;329242;113;2366999;-73
2021/03/31 02:10:20;;;;;;;23.83;13.92;;;;;;;7.67;47.21;100348.00;350508;113;1962948;-72
2021/03/31 02:11:28;;;;;;;21.79;14.41;;;;;;;7.67;47.02;100345.31;351488;113;1962002;-73
2021/03/31 02:12:35;;;;;;;23.18;13.95;;;;;;;7.67;46.98;100346.17;328517;114;2399053;-72
2021/03/31 02:13:40;;;;;;;21.39;13.36;;;;;;;7.68;47.05;100347.84;348684;115;1962014;-72
2021/03/31 02:14:47;;;;;;;19.76;13.62;;;;;;;7.67;47.11;100351.55;346018;115;1963942;-72
2021/03/31 02:15:59;;;;;;;22.82;12.54;;;;;;;7.67;47.16;100351.55;318641;117;2459189;-72
2021/03/31 02:17:07;;;;;;;18.62;12.74;;;;;;;7.68;47.14;100350.53;353864;112;1963922;-72
2021/03/31 02:18:16;;;;;;;21.89;12.93;;;;;;;7.70;47.15;100347.69;299809;115;2138377;-72
2021/03/31 02:19:23;;;;;;;17.89;12.13;;;;;;;7.71;47.01;100346.66;345066;112;2891997;-72
2021/03/31 02:20:29;;;;;;;20.32;13.07;;;;;;;7.72;47.14;100340.27;347068;115;1961975;-72
2021/03/31 02:21:35;;;;;;;19.42;12.43;;;;;;;7.71;47.36;100342.12;350883;113;1962024;-72
2021/03/31 02:22:41;;;;;;;22.11;12.73;;;;;;;7.74;46.97;100343.62;347232;115;1963834;-72
2021/03/31 02:23:49;;;;;;;20.44;12.20;;;;;;;7.74;46.88;100332.87;347577;115;1961055;-72
2021/03/31 02:24:57;;;;;;;22.03;13.44;;;;;;;7.75;46.88;100336.39;315455;114;2652991;-72
2021/03/31 02:26:04;;;;;;;18.98;12.48;;;;;;;7.73;47.12;100333.89;345507;115;1961977;-72
2021/03/31 02:27:11;;;;;;;21.33;13.24;;;;;;;7.70;47.07;100332.38;349585;113;1964960;-72
2021/03/31 02:28:17;;;;;;;17.28;11.98;;;;;;;7.69;47.16;100340.61;351810;113;1964948;-72
2021/03/31 02:29:22;;;;;;;22.84;13.15;;;;;;;7.67;47.33;100331.86;351467;113;1964164;-72
2021/03/31 02:30:29;;;;;;;21.30;13.22;;;;;;;7.67;47.26;100338.11;344277;115;1962022;-72
2021/03/31 02:31:36;;;;;;;20.42;13.38;;;;;;;7.68;47.16;100331.70;305254;115;2081931;-72
2021/03/31 02:32:49;;;;;;;19.88;13.10;;;;;;;7.68;47.31;100330.88;354632;112;1962021;-72
2021/03/31 02:33:56;;;;;;;21.16;13.58;;;;;;;7.68;47.19;100333.56;331797;114;1962940;-72
2021/03/31 02:35:06;;;;;;;23.39;13.77;;;;;;;7.68;47.41;100326.33;338096;114;2898036;-72
2021/03/31 02:36:15;;;;;;;19.06;12.35;;;;;;;7.68;47.54;100331.70;314569;112;2711949;-72
2021/03/31 02:37:22;;;;;;;21.92;13.51;;;;;;;7.68;47.50;100333.56;348666;114;1964072;-72
2021/03/31 02:38:29;;;;;;;19.97;13.64;;;;;;;7.67;47.50;100330.05;327901;113;2374955;-72
2021/03/31 02:39:38;;;;;;;21.29;12.57;;;;;;;7.66;47.87;100333.72;351215;113;1963028;-73
2021/03/31 02:40:50;;;;;;;19.46;12.78;;;;;;;7.68;47.78;100331.70;349232;115;1962041;-72
2021/03/31 02:41:58;;;;;;;23.86;13.43;;;;;;;7.69;47.77;100333.38;357205;113;1962996;-73
2021/03/31 02:43:07;;;;;;;22.91;13.59;;;;;;;7.68;48.08;100330.88;353538;114;1963888;-73
2021/03/31 02:44:14;;;;;;;19.80;13.43;;;;;;;7.68;47.94;100331.70;316841;113;2035100;-72
2021/03/31 02:45:21;;;;;;;23.89;13.91;;;;;;;7.70;47.86;100328.86;356114;111;1961961;-72
2021/03/31 02:46:30;;;;;;;20.62;12.89;;;;;;;7.70;47.93;100340.45;355302;111;1961919;-72
2021/03/31 02:47:40;;;;;;;22.40;13.67;;;;;;;7.71;47.83;100325.15;319916;113;2628019;-72
2021/03/31 02:48:51;;;;;;;22.69;13.88;;;;;;;7.71;47.95;100330.53;323624;111;2940008;-72
2021/03/31 02:50:01;;;;;;;25.46;13.20;;;;;;;7.69;47.90;100325.31;347953;111;1961930;-72
2021/03/31 02:51:08;;;;;;;21.69;13.26;;;;;;;7.72;47.98;100321.44;358059;112;1969005;-72
2021/03/31 02:52:15;;;;;;;23.82;14.03;;;;;;;7.73;48.08;100327.65;358237;111;1961830;-72
2021/03/31 02:53:21;;;;;;;22.60;13.35;;;;;;;7.73;47.77;100325.83;351784;112;1962003;-72
2021/03/31 02:54:28;;;;;;;24.62;13.66;;;;;;;7.56;47.74;100294.59;358628;108;1963051;-73
2021/03/31 02:55:37;;;;;;;21.69;13.77;;;;;;;7.72;47.78;100316.06;313488;112;2718950;-73
2021/03/31 02:56:46;;;;;;;23.14;14.33;;;;;;;7.71;47.94;100322.45;293040;115;2206168;-72
2021/03/31 02:57:53;;;;;;;20.53;13.31;;;;;;;7.70;47.92;100318.11;342353;115;1960971;-72
2021/03/31 02:59:00;;;;;;;21.36;12.62;;;;;;;7.68;48.01;100326.33;311709;113;2070893;-73
2021/03/31 03:00:08;;;;;;;21.78;12.84;;;;;;;7.69;48.10;100322.62;354481;114;1962949;-73
2021/03/31 03:01:14;;;;;;;20.44;13.40;;;;;;;7.69;48.08;100321.78;338609;113;1961981;-72
2021/03/31 03:02:21;;;;;;;22.12;14.09;;;;;;;7.69;48.09;100319.93;352368;113;1961943;-73
2021/03/31 03:03:27;;;;;;;23.83;13.79;;;;;;;7.69;48.09;100321.78;345939;117;1961807;-73
2021/03/31 03:04:33;;;;;;;22.34;15.58;;;;;;;7.70;48.31;100318.11;327329;114;2356030;-73
2021/03/31 03:05:39;;;;;;;20.00;13.82;;;;;;;7.70;48.31;100320.80;348391;114;1960955;-73
2021/03/31 03:06:47;;;;;;;23.22;14.49;;;;;;;7.70;48.34;100324.31;348332;114;1961959;-73
2021/03/31 03:07:53;;;;;;;23.39;15.51;;;;;;;7.69;48.49;100327.16;332123;116;1960899;-73
2021/03/31 03:09:05;;;;;;;22.82;15.14;;;;;;;7.69;48.55;100316.41;349631;114;1962094;-73
2021/03/31 03:10:11;;;;;;;25.17;14.94;;;;;;;7.67;48.63;100327.35;330653;113;2341932;-72
2021/03/31 03:11:17;;;;;;;21.59;13.91;;;;;;;7.69;48.78;100317.23;336386;113;1961062;-72
2021/03/31 03:12:23;;;;;;;22.39;14.74;;;;;;;7.69;48.73;100317.23;353114;113;1963056;-72
2021/03/31 03:13:31;;;;;;;21.70;14.04;;;;;;;7.68;48.86;100315.58;353306;113;1960843;-72
2021/03/31 03:14:37;;;;;;;26.84;15.00;;;;;;;7.68;48.91;100322.81;353307;113;1962052;-72
2021/03/31 03:15:43;;;;;;;24.01;14.82;;;;;;;7.65;49.08;100312.40;354915;113;1961940;-72
2021/03/31 03:16:49;;;;;;;25.76;16.35;;;;;;;7.64;49.13;100321.45;352541;114;1962853;-73
2021/03/31 03:17:55;;;;;;;26.97;15.73;;;;;;;7.61;49.26;100319.11;324045;115;2492851;-73
2021/03/31 03:19:01;;;;;;;23.36;14.09;;;;;;;7.60;49.46;100315.59;350893;113;1960833;-72
2021/03/31 03:20:10;;;;;;;22.86;14.21;;;;;;;7.61;49.46;100317.26;344834;115;1960737;-71
2021/03/31 03:21:16;;;;;;;25.69;15.37;;;;;;;7.60;49.41;100312.91;345952;117;1960809;-72
2021/03/31 03:22:22;;;;;;;25.50;14.86;;;;;;;7.57;49.80;100307.87;351415;113;1961036;-72
2021/03/31 03:23:30;;;;;;;24.92;15.87;;;;;;;7.58;49.86;100314.91;314422;115;2708937;-73
2021/03/31 03:24:36;;;;;;;24.61;15.04;;;;;;;7.57;50.00;100313.25;347503;115;1961936;-73
2021/03/31 03:25:46;;;;;;;22.66;14.91;;;;;;;7.49;50.39;100305.20;302611;113;2236036;-73
2021/03/31 03:26:53;;;;;;;24.77;15.88;;;;;;;7.55;50.50;100306.36;313029;113;2047231;-72
2021/03/31 03:27:59;;;;;;;22.88;14.94;;;;;;;7.56;50.47;100310.72;351114;113;1962000;-72
2021/03/31 03:29:07;;;;;;;28.64;16.31;;;;;;;7.55;50.64;100312.58;343944;117;1962036;-73
2021/03/31 03:30:16;;;;;;;24.10;15.25;;;;;;;7.56;50.65;100310.72;342527;114;1961847;-72
2021/03/31 03:31:22;;;;;;;25.05;14.63;;;;;;;7.57;50.54;100309.70;316880;113;2670093;-72
2021/03/31 03:32:28;;;;;;;26.39;14.63;;;;;;;7.56;50.63;100308.03;349950;114;1962066;-72
2021/03/31 03:33:33;;;;;;;22.89;14.32;;;;;;;7.55;50.60;100314.42;354124;112;1961950;-72
2021/03/31 03:34:40;;;;;;;21.89;14.55;;;;;;;7.55;50.52;100306.36;357053;112;1960734;-74
2021/03/31 03:35:46;;;;;;;22.05;14.27;;;;;;;7.54;50.90;100310.05;337292;113;2275971;-72
2021/03/31 03:36:53;;;;;;;23.57;13.86;;;;;;;7.53;50.88;100311.89;358481;112;1961969;-72
2021/03/31 03:37:59;;;;;;;24.03;15.29;;;;;;;7.53;50.90;100306.52;356057;112;1961897;-74
2021/03/31 03:39:06;;;;;;;26.41;17.12;;;;;;;7.53;50.82;100303.83;319862;112;2671933;-73
2021/03/31 03:40:13;;;;;;;26.86;17.59;;;;;;;7.53;50.98;100309.20;355265;113;1961025;-73
2021/03/31 03:41:19;;;;;;;28.98;18.69;;;;;;;7.53;51.25;100308.37;307174;113;2870032;-73
2021/03/31 03:42:24;;;;;;;30.06;19.63;;;;;;;7.54;51.07;100313.59;323940;112;1961984;-73
2021/03/31 03:43:30;;;;;;;29.05;19.92;;;;;;;7.51;51.23;100313.91;352459;113;1960830;-74
2021/03/31 03:44:36;;;;;;;35.38;22.23;;;;;;;7.47;52.07;100313.42;353734;113;1963047;-72
2021/03/31 03:45:42;;;;;;;30.64;20.38;;;;;;;7.47;51.46;100316.11;355462;112;1962021;-73
2021/03/31 03:46:51;;;;;;;30.44;20.28;;;;;;;7.47;51.73;100305.36;335530;111;1961985;-73
2021/03/31 03:47:59;;;;;;;32.47;20.57;;;;;;;7.45;51.85;100309.22;357071;112;1962063;-72
2021/03/31 03:49:05;;;;;;;30.79;20.24;;;;;;;7.43;52.38;100309.38;355468;112;1961992;-73
2021/03/31 03:50:14;;;;;;;25.58;17.41;;;;;;;7.42;52.46;100314.95;359157;113;1961953;-73
2021/03/31 03:51:19;;;;;;;25.27;18.54;;;;;;;7.42;52.50;100310.40;351904;113;1961940;-72
2021/03/31 03:52:25;;;;;;;31.12;18.22;;;;;;;7.41;52.82;100310.56;358709;113;1961957;-73
2021/03/31 03:53:32;;;;;;;29.38;19.07;;;;;;;7.38;53.03;100314.45;358796;111;1961969;-73
2021/03/31 03:54:38;;;;;;;27.78;18.66;;;;;;;7.38;52.98;100316.27;356035;114;1961934;-72
2021/03/31 03:55:43;;;;;;;31.68;18.42;;;;;;;7.39;53.04;100307.22;357514;113;1962983;-72
2021/03/31 03:56:51;;;;;;;27.98;17.23;;;;;;;7.39;53.38;100307.22;337051;111;2317968;-73
2021/03/31 03:58:00;;;;;;;34.07;18.31;;;;;;;7.39;53.25;100307.22;341751;113;1963974;-73
2021/03/31 03:59:23;;;;;;;33.12;17.97;;;;;;;7.39;53.59;100312.59;329713;111;2220027;-73
2021/03/31 04:00:30;;;;;;;26.84;17.53;;;;;;;7.38;54.31;100302.84;318178;111;2892880;-74
2021/03/31 04:01:35;;;;;;;27.19;17.29;;;;;;;7.36;53.68;100302.19;338378;112;1961971;-74
2021/03/31 04:02:41;;;;;;;27.74;17.91;;;;;;;7.36;53.83;100300.34;359659;113;1961927;-73
2021/03/31 04:03:48;;;;;;;29.14;18.66;;;;;;;7.37;53.58;100301.17;357267;111;1962040;-73
2021/03/31 04:04:54;;;;;;;27.27;18.03;;;;;;;7.38;53.63;100297.46;320867;111;2691845;-73
2021/03/31 04:05:59;;;;;;;28.10;18.94;;;;;;;7.35;53.85;100300.49;345273;111;1961870;-73
2021/03/31 04:07:05;;;;;;;30.28;18.09;;;;;;;7.34;54.07;100298.83;353229;115;1962008;-73
2021/03/31 04:08:10;;;;;;;25.51;16.81;;;;;;;7.35;54.60;100295.12;357304;112;1961994;-73
2021/03/31 04:09:15;;;;;;;27.09;17.40;;;;;;;7.34;54.18;100298.83;360928;111;1961989;-72
2021/03/31 04:10:28;;;;;;;26.72;17.91;;;;;;;7.35;54.14;100297.80;309801;111;2883993;-72
2021/03/31 04:11:35;;;;;;;25.52;17.63;;;;;;;7.36;54.28;100302.19;351267;113;1963991;-74
2021/03/31 04:12:41;;;;;;;29.17;19.40;;;;;;;7.34;54.51;100296.97;355807;111;1969968;-73
2021/03/31 04:13:48;;;;;;;31.62;22.11;;;;;;;7.34;54.52;100296.97;332229;111;1961990;-73
2021/03/31 04:14:57;;;;;;;35.29;21.44;;;;;;;7.32;54.72;100298.98;356827;112;1961993;-73
2021/03/31 04:16:11;;;;;;;30.47;19.61;;;;;;;7.32;54.61;100296.30;352204;110;1961922;-71
2021/03/31 04:17:18;;;;;;;30.66;19.09;;;;;;;7.33;54.63;100295.30;303893;111;2186635;-72
2021/03/31 04:18:25;;;;;;;29.13;20.45;;;;;;;7.33;54.77;100297.99;357245;111;1961993;-72
2021/03/31 04:19:32;;;;;;;31.49;19.98;;;;;;;7.33;54.60;100297.13;319769;109;2705985;-72
2021/03/31 04:20:40;;;;;;;32.66;19.62;;;;;;;7.35;54.82;100292.43;363834;109;1961995;-72
2021/03/31 04:21:46;;;;;;;30.12;20.18;;;;;;;7.34;54.64;100296.97;345271;109;1964963;-72
2021/03/31 04:22:52;;;;;;;32.84;19.03;;;;;;;7.35;54.53;100293.27;363832;110;1963970;-73
2021/03/31 04:23:59;;;;;;;32.11;19.91;;;;;;;7.37;54.68;100290.42;364263;109;1961956;-72
2021/03/31 04:25:06;;;;;;;33.74;21.04;;;;;;;7.38;54.64;100294.77;307836;109;2205356;-72
2021/03/31 04:26:13;;;;;;;35.86;25.16;;;;;;;7.33;54.91;100292.62;363399;109;1964026;-72
2021/03/31 04:27:19;;;;;;;37.95;24.61;;;;;;;7.34;54.70;100283.53;338371;109;2420963;-74
2021/03/31 04:28:27;;;;;;;38.47;25.44;;;;;;;7.36;54.76;100286.90;364268;109;1961982;-73
2021/03/31 04:29:33;;;;;;;36.90;23.64;;;;;;;7.34;54.85;100288.91;363978;109;1962013;-73
2021/03/31 04:30:41;;;;;;;37.02;24.75;;;;;;;7.36;54.82;100289.59;364188;109;1961941;-72
2021/03/31 04:31:47;;;;;;;39.47;25.23;;;;;;;7.37;54.80;100291.25;364580;110;1962981;-73
2021/03/31 04:32:53;;;;;;;35.87;22.49;;;;;;;7.38;54.96;100289.40;327721;110;2631065;-73
2021/03/31 04:33:58;;;;;;;34.02;21.85;;;;;;;7.37;54.90;100290.42;362574;109;1962076;-76
2021/03/31 04:35:05;;;;;;;33.91;22.41;;;;;;;7.38;54.83;100287.58;363909;110;1962016;-73
2021/03/31 04:36:12;;;;;;;33.52;22.46;;;;;;;7.38;54.79;100286.71;324057;109;2710930;-74
2021/03/31 04:37:17;;;;;;;35.22;22.42;;;;;;;7.37;54.81;100291.25;352306;109;1961988;-72
2021/03/31 04:38:22;;;;;;;36.37;24.36;;;;;;;7.36;54.83;100286.06;356661;111;1962052;-74
2021/03/31 04:39:28;;;;;;;36.45;24.49;;;;;;;7.35;54.93;100289.74;350378;112;1961958;-73
2021/03/31 04:40:54;;;;;;;34.95;24.71;;;;;;;7.34;54.97;100285.39;323887;112;2944032;-73
2021/03/31 04:42:00;;;;;;;31.94;21.18;;;;;;;7.36;54.92;100294.96;313793;110;2836986;-72
2021/03/31 04:43:05;;;;;;;36.52;23.21;;;;;;;7.38;54.86;100287.58;340712;110;1961990;-72
2021/03/31 04:44:11;;;;;;;36.42;25.53;;;;;;;7.38;54.88;100292.09;360019;110;1961991;-73
2021/03/31 04:45:16;;;;;;;39.61;26.37;;;;;;;7.36;55.06;100289.59;362310;109;1964003;-73
2021/03/31 04:46:23;;;;;;;32.18;22.53;;;;;;;7.36;55.20;100289.59;364246;109;1962022;-73
2021/03/31 04:47:29;;;;;;;34.48;21.72;;;;;;;7.37;54.95;100290.42;325250;110;2688025;-73
2021/03/31 04:48:36;;;;;;;34.04;24.08;;;;;;;7.40;54.85;100292.77;341506;109;1962075;-73
2021/03/31 04:49:41;;;;;;;31.12;22.52;;;;;;;7.40;55.29;100287.39;362994;109;1961969;-72
2021/03/31 04:50:48;;;;;;;32.27;23.01;;;;;;;7.41;54.99;100295.30;326672;109;2641945;-73
2021/03/31 04:51:53;;;;;;;31.26;21.77;;;;;;;7.43;54.90;100290.56;330598;109;1960834;-72
2021/03/31 04:52:58;;;;;;;30.83;22.20;;;;;;;7.45;54.88;100293.92;352962;109;1961039;-72
2021/03/31 04:54:05;;;;;;;29.31;20.00;;;;;;;7.47;54.82;100289.23;362509;109;1962978;-74
2021/03/31 04:55:10;;;;;;;28.05;20.04;;;;;;;7.51;54.67;100289.72;363145;109;1961964;-73
2021/03/31 04:56:17;;;;;;;30.26;20.08;;;;;;;7.52;54.68;100290.58;340983;109;1962023;-73
2021/03/31 04:57:25;;;;;;;28.69;20.49;;;;;;;7.52;54.91;100291.41;365153;110;1960957;-74
2021/03/31 04:58:31;;;;;;;27.69;19.53;;;;;;;6.94;54.72;100196.59;323581;110;2695968;-74
2021/03/31 04:59:37;;;;;;;27.93;18.25;;;;;;;7.57;54.55;100298.94;342530;109;1963963;-73
2021/03/31 05:00:59;;;;;;;26.98;18.08;;;;;;;7.58;54.50;100293.41;363102;109;1961907;-73
2021/03/31 05:02:06;;;;;;;28.96;17.86;;;;;;;7.59;54.48;100292.38;366582;109;1962112;-74
2021/03/31 05:03:11;;;;;;;28.58;18.56;;;;;;;7.62;54.38;100294.76;338853;110;1961964;-73
2021/03/31 05:04:17;;;;;;;26.60;17.59;;;;;;;7.63;54.31;100293.73;362777;110;1962027;-72
2021/03/31 05:05:22;;;;;;;27.08;17.61;;;;;;;7.66;54.28;100296.08;363756;109;1961968;-73
2021/03/31 05:06:29;;;;;;;28.18;18.73;;;;;;;7.67;54.32;100294.22;356481;111;1962070;-72